Time;durP1;ratioP1;P1;durP2;ratioP2;P2;SDS_P1;SDS_P2;PMS_P1;PMS_P2;Temp;Humidity;BMP_temperature;BMP_pressure;BME280_temperature;BME280_humidity;BME280_pressure;Samples;Min_cycle;Max_cycle;Signal;HPM_P1;HPM_P2
2023/11/18 00:00:16;;;;;;;39.37;19.73;;;;;;;;;;5052701;28;20215;-67
2023/11/18 00:02:42;;;;;;;42.57;20.77;;;;;;;;;;5033105;28;20656;-66
2023/11/18 00:05:08;;;;;;;35.97;20.60;;;;;;;;;;5040922;28;20235;-67
2023/11/18 00:07:33;;;;;;;40.00;21.03;;;;;;;;;;5050687;28;20239;-67
2023/11/18 00:09:58;;;;;;;41.77;20.53;;;;;;;;;;5055456;28;20189;-67
2023/11/18 00:12:24;;;;;;;38.57;21.50;;;;;;;;;;5047505;28;20212;-66
2023/11/18 00:14:49;;;;;;;37.70;19.07;;;;;;;;;;5049034;28;20178;-66
2023/11/18 00:17:15;;;;;;;43.60;22.30;;;;;;;;;;5051785;28;20193;-66
2023/11/18 00:19:42;;;;;;;41.93;19.63;;;;;;;;;;5048355;28;20216;-66
2023/11/18 00:22:07;;;;;;;38.70;19.97;;;;;;;;;;5029762;28;20698;-65
2023/11/18 00:24:34;;;;;;;36.67;20.40;;;;;;;;;;5052759;28;20264;-67
2023/11/18 00:26:59;;;;;;;40.57;22.10;;;;;;;;;;5027046;28;20307;-65
2023/11/18 00:29:25;;;;;;;39.60;19.77;;;;;;;;;;5044166;28;20677;-66
2023/11/18 00:31:50;;;;;;;38.07;21.07;;;;;;;;;;5054706;28;20212;-66
2023/11/18 00:34:15;;;;;;;34.83;20.10;;;;;;;;;;5055634;28;20710;-66
2023/11/18 00:36:40;;;;;;;36.50;19.87;;;;;;;;;;5055270;28;20189;-65
2023/11/18 00:39:06;;;;;;;37.43;20.23;;;;;;;;;;5055832;28;20193;-66
2023/11/18 00:41:31;;;;;;;32.27;18.20;;;;;;;;;;5055424;28;20202;-67
2023/11/18 00:43:56;;;;;;;31.53;18.53;;;;;;;;;;5054523;28;20252;-66
2023/11/18 00:46:22;;;;;;;29.40;17.47;;;;;;;;;;5051070;28;20174;-66
2023/11/18 00:48:47;;;;;;;28.67;17.87;;;;;;;;;;5052111;28;20181;-65
2023/11/18 00:51:12;;;;;;;30.37;18.17;;;;;;;;;;5050692;28;20235;-66
2023/11/18 00:53:37;;;;;;;40.43;20.40;;;;;;;;;;5052235;28;20176;-66
2023/11/18 00:56:07;;;;;;;35.20;17.43;;;;;;;;;;5054984;28;20184;-67
2023/11/18 00:58:35;;;;;;;35.57;18.53;;;;;;;;;;5055125;28;20204;-66
2023/11/18 01:01:00;;;;;;;35.20;19.50;;;;;;;;;;5052983;28;20212;-66
2023/11/18 01:03:25;;;;;;;29.27;17.20;;;;;;;;;;5043518;28;20178;-66
2023/11/18 01:05:51;;;;;;;33.43;18.67;;;;;;;;;;5042120;28;20578;-66
2023/11/18 01:08:17;;;;;;;28.60;17.80;;;;;;;;;;5033577;28;20197;-65
2023/11/18 01:10:42;;;;;;;29.27;18.10;;;;;;;;;;5026178;28;20210;-66
2023/11/18 01:13:09;;;;;;;33.97;19.70;;;;;;;;;;5050054;28;20220;-67
2023/11/18 01:15:34;;;;;;;28.13;17.50;;;;;;;;;;5049076;28;20189;-67
2023/11/18 01:17:59;;;;;;;33.70;18.37;;;;;;;;;;5050049;28;20584;-66
2023/11/18 01:20:24;;;;;;;26.90;17.63;;;;;;;;;;5050039;28;20838;-66
2023/11/18 01:22:49;;;;;;;31.80;15.83;;;;;;;;;;5050319;28;20205;-66
2023/11/18 01:25:17;;;;;;;27.10;16.30;;;;;;;;;;5042304;28;20178;-67
2023/11/18 01:27:46;;;;;;;30.67;17.27;;;;;;;;;;5050135;28;20331;-67
2023/11/18 01:30:12;;;;;;;29.60;17.93;;;;;;;;;;5050964;28;20201;-68
2023/11/18 01:32:39;;;;;;;32.20;17.57;;;;;;;;;;5051077;28;20224;-67
2023/11/18 01:35:05;;;;;;;30.13;17.80;;;;;;;;;;5033473;28;20266;-67
2023/11/18 01:37:31;;;;;;;29.97;17.53;;;;;;;;;;5051429;28;20261;-67
2023/11/18 01:39:57;;;;;;;29.80;18.20;;;;;;;;;;5049753;28;20204;-67
2023/11/18 01:42:22;;;;;;;27.27;17.23;;;;;;;;;;5051218;28;20185;-67
2023/11/18 01:44:48;;;;;;;27.27;16.23;;;;;;;;;;5048972;28;20181;-68
2023/11/18 01:47:13;;;;;;;28.73;18.77;;;;;;;;;;5049725;28;20177;-68
2023/11/18 01:49:40;;;;;;;27.03;17.03;;;;;;;;;;5050102;28;20169;-67
2023/11/18 01:52:07;;;;;;;28.63;17.17;;;;;;;;;;5032561;28;20201;-68
2023/11/18 01:54:33;;;;;;;29.67;17.90;;;;;;;;;;5049471;28;20180;-66
2023/11/18 01:57:00;;;;;;;30.57;19.20;;;;;;;;;;5051124;28;20185;-68
2023/11/18 01:59:25;;;;;;;38.23;19.37;;;;;;;;;;5050455;28;20577;-68
2023/11/18 02:04:49;;;;;;;36.60;18.47;;;;;;;;;;5060705;28;20235;-88
2023/11/18 02:07:17;;;;;;;35.93;19.23;;;;;;;;;;5048155;28;20192;-88
2023/11/18 02:09:54;;;;;;;28.63;17.67;;;;;;;;;;5043995;28;20203;-93
2023/11/18 02:12:45;;;;;;;31.00;18.40;;;;;;;;;;5053934;28;20182;-91
2023/11/18 02:17:39;;;;;;;35.70;19.47;;;;;;;;;;5068275;28;20225;-64
2023/11/18 02:20:13;;;;;;;31.60;18.17;;;;;;;;;;5068914;28;20201;-64
2023/11/18 02:22:40;;;;;;;35.10;18.77;;;;;;;;;;5042957;28;20224;-64
2023/11/18 02:25:09;;;;;;;33.93;19.40;;;;;;;;;;5050314;28;20553;-65
2023/11/18 02:27:34;;;;;;;34.43;19.27;;;;;;;;;;5050324;28;20651;-65
2023/11/18 02:30:00;;;;;;;34.87;20.10;;;;;;;;;;5091154;22;20216;-68
2023/11/18 02:32:30;;;;;;;39.83;19.90;;;;;;;;;;5077630;28;20226;-68
2023/11/18 02:35:03;;;;;;;32.07;19.97;;;;;;;;;;5075853;28;20651;-67
2023/11/18 02:37:32;;;;;;;30.60;20.03;;;;;;;;;;5064738;28;20181;-65
2023/11/18 02:40:14;;;;;;;40.23;19.87;;;;;;;;;;5078331;28;20223;-66
2023/11/18 02:42:40;;;;;;;34.73;20.70;;;;;;;;;;5079811;28;20180;-66
2023/11/18 02:45:07;;;;;;;35.70;20.13;;;;;;;;;;5077784;28;20230;-66
2023/11/18 02:47:32;;;;;;;35.80;19.93;;;;;;;;;;5081029;28;20176;-66
2023/11/18 02:50:05;;;;;;;35.93;20.10;;;;;;;;;;5086045;28;20210;-66
2023/11/18 02:52:30;;;;;;;36.63;20.63;;;;;;;;;;5074423;28;20597;-66
2023/11/18 02:54:56;;;;;;;37.17;21.37;;;;;;;;;;5077273;28;20306;-66
2023/11/18 02:57:21;;;;;;;35.17;20.50;;;;;;;;;;5077396;28;20230;-66
2023/11/18 02:59:46;;;;;;;39.10;21.10;;;;;;;;;;5084334;28;20204;-66
2023/11/18 03:02:12;;;;;;;37.07;20.83;;;;;;;;;;5085494;28;20255;-66
2023/11/18 03:04:37;;;;;;;35.57;22.67;;;;;;;;;;5080574;28;20185;-67
2023/11/18 03:07:02;;;;;;;39.67;21.87;;;;;;;;;;5086357;28;20162;-66
2023/11/18 03:09:27;;;;;;;36.10;21.47;;;;;;;;;;5076045;28;20584;-66
2023/11/18 03:11:53;;;;;;;38.43;21.93;;;;;;;;;;5077909;28;20189;-67
2023/11/18 03:14:19;;;;;;;38.07;22.07;;;;;;;;;;5063374;28;20177;-67
2023/11/18 03:16:44;;;;;;;36.90;22.73;;;;;;;;;;5060942;28;20181;-66
2023/11/18 03:19:09;;;;;;;37.23;22.43;;;;;;;;;;5086510;28;20199;-67
2023/11/18 03:21:35;;;;;;;40.77;22.73;;;;;;;;;;5084763;28;20257;-66
2023/11/18 03:24:00;;;;;;;38.33;23.97;;;;;;;;;;5086545;28;20203;-66
2023/11/18 03:26:26;;;;;;;39.97;21.43;;;;;;;;;;5081859;28;20179;-66
2023/11/18 03:28:51;;;;;;;40.20;22.40;;;;;;;;;;5089076;28;20187;-67
2023/11/18 03:31:16;;;;;;;42.57;23.83;;;;;;;;;;5090630;28;20800;-67
2023/11/18 03:33:42;;;;;;;38.50;22.47;;;;;;;;;;5085291;28;20184;-67
2023/11/18 03:36:08;;;;;;;44.27;23.10;;;;;;;;;;5082411;28;20181;-66
2023/11/18 03:38:33;;;;;;;39.40;22.93;;;;;;;;;;5084237;28;20544;-66
2023/11/18 03:40:59;;;;;;;37.37;22.00;;;;;;;;;;5077945;28;20222;-67
2023/11/18 03:43:24;;;;;;;42.23;22.33;;;;;;;;;;5082161;28;20208;-66
2023/11/18 03:45:49;;;;;;;37.27;22.10;;;;;;;;;;5085609;28;20445;-67
2023/11/18 03:48:14;;;;;;;38.27;22.53;;;;;;;;;;5087888;28;20172;-66
2023/11/18 03:50:40;;;;;;;41.17;24.07;;;;;;;;;;5080136;28;20200;-67
2023/11/18 03:53:05;;;;;;;39.37;22.23;;;;;;;;;;5081860;28;20184;-67
2023/11/18 03:55:30;;;;;;;38.30;23.43;;;;;;;;;;5089374;28;20180;-66
2023/11/18 03:57:57;;;;;;;35.07;21.97;;;;;;;;;;5087668;28;20184;-68
2023/11/18 04:00:22;;;;;;;42.20;22.80;;;;;;;;;;5086160;28;20213;-67
2023/11/18 04:02:47;;;;;;;37.73;22.00;;;;;;;;;;5065577;28;20326;-67
2023/11/18 04:05:13;;;;;;;36.03;22.07;;;;;;;;;;5074940;28;20197;-66
2023/11/18 04:07:41;;;;;;;38.27;20.93;;;;;;;;;;5066591;28;20164;-67
2023/11/18 04:10:09;;;;;;;38.23;22.67;;;;;;;;;;5084214;28;20679;-67
2023/11/18 04:12:34;;;;;;;36.60;21.80;;;;;;;;;;5084918;28;20651;-67
2023/11/18 04:14:59;;;;;;;41.50;22.47;;;;;;;;;;5080788;28;20213;-67
2023/11/18 04:17:27;;;;;;;38.73;21.00;;;;;;;;;;5080644;28;20231;-67
2023/11/18 04:19:55;;;;;;;35.73;21.53;;;;;;;;;;5088368;28;20215;-67
2023/11/18 04:22:21;;;;;;;33.93;20.73;;;;;;;;;;5085595;28;20180;-67
2023/11/18 04:24:47;;;;;;;38.33;22.03;;;;;;;;;;5077946;28;20177;-67
2023/11/18 04:27:12;;;;;;;36.33;21.80;;;;;;;;;;5084920;28;20172;-66
2023/11/18 04:29:38;;;;;;;40.90;23.10;;;;;;;;;;5082218;28;20215;-67
2023/11/18 04:32:03;;;;;;;36.93;22.10;;;;;;;;;;5081577;28;20177;-66
2023/11/18 04:34:28;;;;;;;38.07;22.43;;;;;;;;;;5078982;28;20257;-67
2023/11/18 04:36:53;;;;;;;34.87;21.33;;;;;;;;;;5080115;28;20551;-66
2023/11/18 04:39:20;;;;;;;36.77;20.17;;;;;;;;;;5081672;28;20201;-66
2023/11/18 04:41:46;;;;;;;34.63;19.97;;;;;;;;;;5082876;28;20172;-66
2023/11/18 04:44:11;;;;;;;34.27;20.60;;;;;;;;;;5081297;28;20563;-66
2023/11/18 04:46:36;;;;;;;35.13;20.57;;;;;;;;;;5078937;28;20214;-66
2023/11/18 04:49:02;;;;;;;34.13;19.77;;;;;;;;;;5081981;28;20356;-66
2023/11/18 04:51:27;;;;;;;39.03;21.87;;;;;;;;;;5077696;28;20286;-66
2023/11/18 04:53:52;;;;;;;39.53;22.17;;;;;;;;;;5082733;28;20252;-66
2023/11/18 04:56:18;;;;;;;43.40;22.13;;;;;;;;;;5088567;28;20171;-66
2023/11/18 04:58:46;;;;;;;40.77;22.57;;;;;;;;;;5060355;28;20181;-66
2023/11/18 05:01:12;;;;;;;44.03;20.77;;;;;;;;;;5078247;28;20273;-67
2023/11/18 05:03:38;;;;;;;38.73;22.53;;;;;;;;;;5078061;28;20179;-65
2023/11/18 05:06:04;;;;;;;38.77;20.63;;;;;;;;;;5082050;28;20173;-66
2023/11/18 05:08:29;;;;;;;38.57;20.10;;;;;;;;;;5078271;28;20181;-65
2023/11/18 05:10:54;;;;;;;39.37;20.37;;;;;;;;;;5086968;28;20249;-66
2023/11/18 05:13:20;;;;;;;39.17;19.17;;;;;;;;;;5077417;28;20181;-66
2023/11/18 05:15:46;;;;;;;37.97;20.77;;;;;;;;;;5070512;28;20188;-65
2023/11/18 05:18:14;;;;;;;36.50;19.77;;;;;;;;;;5058596;28;20245;-66
2023/11/18 05:20:43;;;;;;;34.67;19.83;;;;;;;;;;5082126;28;20694;-67
2023/11/18 05:23:11;;;;;;;36.23;19.53;;;;;;;;;;5081873;28;20173;-67
2023/11/18 05:25:37;;;;;;;45.43;20.07;;;;;;;;;;5077400;28;20177;-67
2023/11/18 05:28:03;;;;;;;34.73;19.70;;;;;;;;;;5081949;28;20694;-66
2023/11/18 05:30:30;;;;;;;34.40;20.33;;;;;;;;;;5075098;28;20581;-67
2023/11/18 05:32:55;;;;;;;31.50;17.33;;;;;;;;;;5084884;28;20267;-66
2023/11/18 05:35:27;;;;;;;31.77;18.40;;;;;;;;;;5084695;28;20714;-67
2023/11/18 05:37:54;;;;;;;30.30;18.17;;;;;;;;;;5062843;28;20188;-67
2023/11/18 05:40:20;;;;;;;38.20;18.97;;;;;;;;;;5061228;28;20406;-67
2023/11/18 05:42:47;;;;;;;35.13;17.97;;;;;;;;;;5084913;28;20173;-66
2023/11/18 05:45:27;;;;;;;38.43;19.20;;;;;;;;;;5078093;28;20173;-67
2023/11/18 05:47:52;;;;;;;30.20;18.73;;;;;;;;;;5077437;28;20187;-66
2023/11/18 05:50:18;;;;;;;29.70;17.97;;;;;;;;;;5072918;28;20193;-67
2023/11/18 05:52:43;;;;;;;38.70;19.67;;;;;;;;;;5079927;28;20183;-66
2023/11/18 05:55:08;;;;;;;34.93;18.23;;;;;;;;;;5061127;28;20185;-66
2023/11/18 05:57:35;;;;;;;34.37;17.63;;;;;;;;;;5060886;28;20655;-67
2023/11/18 06:00:01;;;;;;;29.27;18.00;;;;;;;;;;5074094;28;20208;-66
2023/11/18 06:02:26;;;;;;;35.37;18.50;;;;;;;;;;5079610;28;20187;-67
2023/11/18 06:04:52;;;;;;;38.80;18.77;;;;;;;;;;5075193;28;20201;-66
2023/11/18 06:07:18;;;;;;;41.30;17.87;;;;;;;;;;5079029;28;20181;-65
2023/11/18 06:09:44;;;;;;;40.13;18.70;;;;;;;;;;5077243;28;20275;-65
2023/11/18 06:12:10;;;;;;;38.97;18.97;;;;;;;;;;5078286;28;20738;-65
2023/11/18 06:14:35;;;;;;;41.17;17.47;;;;;;;;;;5074638;28;20664;-67
2023/11/18 06:17:01;;;;;;;33.53;17.17;;;;;;;;;;5075532;28;20168;-66
2023/11/18 06:19:26;;;;;;;36.33;18.20;;;;;;;;;;5082822;28;20279;-66
2023/11/18 06:21:51;;;;;;;36.67;17.10;;;;;;;;;;5076220;28;20242;-65
2023/11/18 06:24:19;;;;;;;34.97;17.50;;;;;;;;;;5080587;28;20201;-66
2023/11/18 06:26:44;;;;;;;34.67;15.63;;;;;;;;;;5060442;28;20620;-65
2023/11/18 06:29:10;;;;;;;31.63;16.47;;;;;;;;;;5079115;28;20215;-65
2023/11/18 06:31:35;;;;;;;30.60;16.43;;;;;;;;;;5083752;28;20296;-66
2023/11/18 06:34:02;;;;;;;32.50;16.70;;;;;;;;;;5079127;28;20267;-66
2023/11/18 06:36:28;;;;;;;34.60;17.30;;;;;;;;;;5072735;28;20217;-66
2023/11/18 06:38:54;;;;;;;32.67;15.93;;;;;;;;;;5080688;28;20265;-67
2023/11/18 06:41:23;;;;;;;26.73;15.43;;;;;;;;;;5075462;28;20680;-67
2023/11/18 06:43:51;;;;;;;31.37;16.03;;;;;;;;;;5075043;28;20160;-66
2023/11/18 06:46:20;;;;;;;28.30;15.63;;;;;;;;;;5069962;28;20176;-67
2023/11/18 06:48:46;;;;;;;32.47;16.13;;;;;;;;;;5064325;28;20233;-66
2023/11/18 06:51:11;;;;;;;31.47;16.43;;;;;;;;;;5076515;28;20201;-66
2023/11/18 06:53:36;;;;;;;27.37;15.10;;;;;;;;;;5079721;28;20253;-67
2023/11/18 06:56:02;;;;;;;24.90;15.33;;;;;;;;;;5075028;28;20193;-66
2023/11/18 06:58:27;;;;;;;24.40;15.13;;;;;;;;;;5085573;28;20173;-66
2023/11/18 07:00:52;;;;;;;23.07;13.90;;;;;;;;;;5083010;28;20627;-66
2023/11/18 07:03:18;;;;;;;25.73;15.60;;;;;;;;;;5082066;28;20179;-65
2023/11/18 07:05:44;;;;;;;33.10;17.03;;;;;;;;;;5084573;28;20204;-66
2023/11/18 07:08:09;;;;;;;28.13;13.67;;;;;;;;;;5081200;28;20178;-67
2023/11/18 07:10:38;;;;;;;32.93;16.10;;;;;;;;;;5083511;28;20580;-66
2023/11/18 07:13:03;;;;;;;24.33;14.60;;;;;;;;;;5083608;28;20191;-65
2023/11/18 07:15:28;;;;;;;23.33;13.57;;;;;;;;;;5084132;28;20172;-66
2023/11/18 07:17:53;;;;;;;22.93;14.03;;;;;;;;;;5070685;28;20271;-65
2023/11/18 07:20:18;;;;;;;24.40;13.83;;;;;;;;;;5084592;28;20212;-66
2023/11/18 07:22:43;;;;;;;23.70;13.67;;;;;;;;;;5087278;28;20558;-66
2023/11/18 07:25:09;;;;;;;23.70;12.63;;;;;;;;;;5074651;28;20207;-66
2023/11/18 07:27:35;;;;;;;25.20;13.10;;;;;;;;;;5086853;28;20192;-66
2023/11/18 07:30:00;;;;;;;27.87;12.93;;;;;;;;;;5066307;28;20220;-66
2023/11/18 07:32:25;;;;;;;25.77;12.43;;;;;;;;;;5078871;28;20173;-66
2023/11/18 07:34:50;;;;;;;27.80;12.43;;;;;;;;;;5085141;28;20180;-66
2023/11/18 07:37:16;;;;;;;25.93;12.77;;;;;;;;;;5078220;28;20237;-66
2023/11/18 07:39:44;;;;;;;21.07;12.33;;;;;;;;;;5082757;28;20717;-65
2023/11/18 07:42:12;;;;;;;21.40;12.93;;;;;;;;;;5083970;28;20169;-66
2023/11/18 07:44:38;;;;;;;26.20;11.80;;;;;;;;;;5084684;28;20177;-65
2023/11/18 07:47:05;;;;;;;24.23;12.17;;;;;;;;;;5063440;28;20185;-66
2023/11/18 07:49:31;;;;;;;24.97;10.80;;;;;;;;;;5083451;28;20718;-66
2023/11/18 07:51:56;;;;;;;18.67;11.90;;;;;;;;;;5078800;28;20181;-66
2023/11/18 07:54:21;;;;;;;20.40;11.67;;;;;;;;;;5081815;28;20176;-66
2023/11/18 07:56:48;;;;;;;19.53;11.77;;;;;;;;;;5082276;28;20584;-66
2023/11/18 07:59:15;;;;;;;25.27;11.13;;;;;;;;;;5079759;28;20200;-67
2023/11/18 08:01:44;;;;;;;21.67;10.87;;;;;;;;;;5078976;28;20749;-66
2023/11/18 08:04:10;;;;;;;22.83;10.97;;;;;;;;;;5063115;28;20271;-66
2023/11/18 08:06:35;;;;;;;19.97;11.30;;;;;;;;;;5082522;28;20204;-66
2023/11/18 08:09:00;;;;;;;18.83;10.07;;;;;;;;;;5081197;28;20230;-66
2023/11/18 08:11:26;;;;;;;19.27;11.20;;;;;;;;;;5076971;28;20609;-66
2023/11/18 08:13:51;;;;;;;20.67;10.63;;;;;;;;;;5079366;28;20673;-66
2023/11/18 08:16:16;;;;;;;20.97;10.37;;;;;;;;;;5080785;28;20180;-66
2023/11/18 08:18:41;;;;;;;21.93;9.80;;;;;;;;;;5079823;28;20184;-66
2023/11/18 08:21:07;;;;;;;20.53;10.53;;;;;;;;;;5082427;28;20219;-66
2023/11/18 08:23:32;;;;;;;19.37;9.80;;;;;;;;;;5079228;28;20177;-66
2023/11/18 08:25:58;;;;;;;16.70;9.03;;;;;;;;;;5078851;28;20255;-65
2023/11/18 08:28:24;;;;;;;17.27;10.43;;;;;;;;;;5080280;28;20683;-66
2023/11/18 08:30:51;;;;;;;17.73;9.70;;;;;;;;;;5079166;28;20211;-67
2023/11/18 08:33:16;;;;;;;22.20;9.80;;;;;;;;;;5078556;28;20175;-67
2023/11/18 08:35:42;;;;;;;18.30;10.27;;;;;;;;;;5080559;28;20634;-66
2023/11/18 08:38:07;;;;;;;15.97;8.93;;;;;;;;;;5080047;28;20180;-66
2023/11/18 08:40:32;;;;;;;15.57;9.07;;;;;;;;;;5081189;28;20229;-66
2023/11/18 08:42:58;;;;;;;16.13;9.17;;;;;;;;;;5078920;28;20275;-66
2023/11/18 08:45:32;;;;;;;16.97;8.07;;;;;;;;;;5081505;28;20255;-68
2023/11/18 08:47:58;;;;;;;14.17;8.03;;;;;;;;;;5079215;28;20172;-67
2023/11/18 08:50:24;;;;;;;19.60;8.30;;;;;;;;;;5079524;28;20222;-67
2023/11/18 08:52:52;;;;;;;15.53;7.93;;;;;;;;;;5074772;28;20651;-67
2023/11/18 08:55:18;;;;;;;15.93;8.07;;;;;;;;;;5078400;28;20681;-66
2023/11/18 08:57:59;;;;;;;15.30;6.83;;;;;;;;;;5081222;28;20211;-67
2023/11/18 09:03:08;;;;;;;19.80;7.43;;;;;;;;;;5079966;28;20188;-67
2023/11/18 09:05:35;;;;;;;14.43;7.20;;;;;;;;;;5078621;28;20193;-68
2023/11/18 09:08:02;;;;;;;15.47;6.47;;;;;;;;;;5079821;28;20172;-67
2023/11/18 09:10:29;;;;;;;13.87;6.13;;;;;;;;;;5076341;28;20200;-67
2023/11/18 09:12:54;;;;;;;14.67;6.63;;;;;;;;;;5078701;28;20262;-67
2023/11/18 09:15:22;;;;;;;8.80;5.73;;;;;;;;;;5082149;28;20241;-67
2023/11/18 09:17:50;;;;;;;13.27;7.20;;;;;;;;;;5081335;28;20180;-67
2023/11/18 09:20:22;;;;;;;13.07;5.83;;;;;;;;;;5080683;28;20231;-67
2023/11/18 09:22:48;;;;;;;8.73;5.87;;;;;;;;;;5079961;28;20553;-69
2023/11/18 09:25:13;;;;;;;8.60;5.83;;;;;;;;;;5080769;28;20717;-67
2023/11/18 09:27:39;;;;;;;10.83;5.73;;;;;;;;;;5079999;28;20193;-67
2023/11/18 09:30:13;;;;;;;9.67;5.47;;;;;;;;;;5059101;28;20209;-67
2023/11/18 09:32:39;;;;;;;10.93;5.80;;;;;;;;;;5079154;28;20813;-67
2023/11/18 09:35:09;;;;;;;13.13;5.90;;;;;;;;;;5082277;28;20181;-67
2023/11/18 09:37:34;;;;;;;9.00;6.17;;;;;;;;;;5082536;28;20172;-67
2023/11/18 09:40:11;;;;;;;9.40;4.93;;;;;;;;;;5072128;28;20636;-67
2023/11/18 09:42:37;;;;;;;9.30;4.80;;;;;;;;;;5081723;28;20176;-67
2023/11/18 09:45:05;;;;;;;20.23;5.77;;;;;;;;;;5074936;28;20191;-67
2023/11/18 09:47:32;;;;;;;12.30;5.73;;;;;;;;;;5078374;28;20230;-67
2023/11/18 09:49:59;;;;;;;13.80;6.00;;;;;;;;;;5077214;28;20586;-67
2023/11/18 09:52:26;;;;;;;12.20;4.87;;;;;;;;;;5080549;28;20690;-67
2023/11/18 09:55:02;;;;;;;8.57;4.77;;;;;;;;;;5078152;28;20204;-67
2023/11/18 09:57:41;;;;;;;9.00;5.40;;;;;;;;;;5078171;28;20177;-67
2023/11/18 10:02:51;;;;;;;12.13;5.20;;;;;;;;;;5081513;28;20178;-66
2023/11/18 10:05:20;;;;;;;12.50;5.00;;;;;;;;;;5078576;28;20180;-67
2023/11/18 10:07:47;;;;;;;10.40;4.80;;;;;;;;;;5061170;28;21692;-67
2023/11/18 10:10:15;;;;;;;9.60;4.73;;;;;;;;;;5079397;28;21021;-67
2023/11/18 10:12:51;;;;;;;10.00;4.87;;;;;;;;;;5077894;28;20546;-67
2023/11/18 10:15:17;;;;;;;10.37;5.13;;;;;;;;;;5080281;28;20175;-68
2023/11/18 10:17:59;;;;;;;13.70;5.43;;;;;;;;;;5079997;28;20184;-67
2023/11/18 10:20:41;;;;;;;10.47;4.90;;;;;;;;;;5062844;28;20605;-66
2023/11/18 10:23:10;;;;;;;11.60;4.17;;;;;;;;;;5078014;28;20181;-67
2023/11/18 10:25:48;;;;;;;7.83;3.70;;;;;;;;;;5077994;28;20177;-67
2023/11/18 10:28:23;;;;;;;9.93;4.30;;;;;;;;;;5078898;28;20486;-67
2023/11/18 10:30:50;;;;;;;8.40;4.50;;;;;;;;;;5076799;28;20813;-68
2023/11/18 10:33:16;;;;;;;7.27;4.07;;;;;;;;;;5081736;28;20188;-67
2023/11/18 10:35:51;;;;;;;12.50;4.63;;;;;;;;;;5082855;28;20176;-67
2023/11/18 10:38:17;;;;;;;11.00;4.63;;;;;;;;;;5082907;28;20590;-67
2023/11/18 10:40:43;;;;;;;13.67;5.30;;;;;;;;;;5088759;28;20232;-67
2023/11/18 10:43:09;;;;;;;9.57;4.37;;;;;;;;;;5078230;28;20177;-67
2023/11/18 10:45:38;;;;;;;5.57;3.63;;;;;;;;;;5081140;28;20612;-67
2023/11/18 10:48:05;;;;;;;6.43;3.87;;;;;;;;;;5077068;28;20609;-67
2023/11/18 10:50:31;;;;;;;12.43;3.83;;;;;;;;;;5081840;28;20245;-67
2023/11/18 10:52:57;;;;;;;11.47;4.23;;;;;;;;;;5085343;28;20181;-67
2023/11/18 10:55:23;;;;;;;9.80;4.03;;;;;;;;;;5081982;28;20189;-67
2023/11/18 10:57:48;;;;;;;5.90;3.60;;;;;;;;;;5084959;28;20169;-67
2023/11/18 11:00:14;;;;;;;7.37;3.80;;;;;;;;;;5082210;28;20200;-67
2023/11/18 11:02:41;;;;;;;10.77;4.83;;;;;;;;;;5080117;28;20252;-67
2023/11/18 11:05:06;;;;;;;6.50;4.17;;;;;;;;;;5087415;28;20185;-67
2023/11/18 11:07:35;;;;;;;12.17;4.13;;;;;;;;;;5083995;28;20172;-67
2023/11/18 11:10:04;;;;;;;13.27;3.97;;;;;;;;;;5068992;28;20223;-67
2023/11/18 11:12:32;;;;;;;11.40;4.40;;;;;;;;;;5063860;28;20188;-67
2023/11/18 11:14:59;;;;;;;6.43;4.40;;;;;;;;;;5078881;28;20264;-67
2023/11/18 11:17:30;;;;;;;9.37;4.17;;;;;;;;;;5083972;28;20177;-67
2023/11/18 11:20:11;;;;;;;10.10;3.93;;;;;;;;;;5076667;28;20209;-67
2023/11/18 11:22:47;;;;;;;8.93;5.13;;;;;;;;;;5080760;28;20650;-67
2023/11/18 11:25:22;;;;;;;7.10;4.30;;;;;;;;;;5080012;28;20635;-67
2023/11/18 11:28:03;;;;;;;9.43;3.97;;;;;;;;;;5085300;28;21106;-67
2023/11/18 11:30:31;;;;;;;12.23;5.00;;;;;;;;;;5078013;28;20212;-67
2023/11/18 11:33:16;;;;;;;10.07;4.17;;;;;;;;;;5074609;28;20181;-68
2023/11/18 11:35:46;;;;;;;10.07;4.00;;;;;;;;;;5062391;28;20173;-67
2023/11/18 11:38:13;;;;;;;10.87;3.87;;;;;;;;;;5084608;28;20184;-68
2023/11/18 11:40:41;;;;;;;7.13;3.70;;;;;;;;;;5080200;28;20209;-67
2023/11/18 11:43:09;;;;;;;10.73;4.47;;;;;;;;;;5081679;28;20255;-68
2023/11/18 11:45:35;;;;;;;7.33;3.83;;;;;;;;;;5066129;28;20512;-68
2023/11/18 11:48:14;;;;;;;7.13;4.47;;;;;;;;;;5070954;28;20176;-68
2023/11/18 11:50:57;;;;;;;9.17;3.77;;;;;;;;;;5070347;28;20511;-68
2023/11/18 11:53:25;;;;;;;10.70;4.47;;;;;;;;;;5069187;28;20195;-68
2023/11/18 11:55:52;;;;;;;6.50;4.03;;;;;;;;;;5065365;28;20173;-68
2023/11/18 11:58:26;;;;;;;6.27;4.63;;;;;;;;;;5071016;28;20705;-68
2023/11/18 12:00:52;;;;;;;8.67;3.67;;;;;;;;;;5069227;28;20240;-68
2023/11/18 12:03:18;;;;;;;8.13;3.63;;;;;;;;;;5071829;28;20275;-68
2023/11/18 12:05:45;;;;;;;6.67;3.50;;;;;;;;;;5078615;28;20203;-67
2023/11/18 12:08:13;;;;;;;4.47;3.30;;;;;;;;;;5071743;28;20188;-68
2023/11/18 12:10:40;;;;;;;12.70;4.67;;;;;;;;;;5051903;28;20208;-68
2023/11/18 12:13:19;;;;;;;10.10;3.80;;;;;;;;;;5051780;28;20203;-68
2023/11/18 12:15:54;;;;;;;10.47;4.57;;;;;;;;;;5053351;28;20615;-67
2023/11/18 12:18:21;;;;;;;10.10;4.27;;;;;;;;;;5050301;28;20284;-68
2023/11/18 12:20:47;;;;;;;6.17;3.57;;;;;;;;;;5053693;28;20215;-68
2023/11/18 12:23:17;;;;;;;8.97;3.60;;;;;;;;;;5069865;28;20185;-68
2023/11/18 12:25:43;;;;;;;7.23;3.70;;;;;;;;;;5069455;28;20204;-68
2023/11/18 12:28:09;;;;;;;5.63;3.40;;;;;;;;;;5050300;28;20271;-68
2023/11/18 12:30:36;;;;;;;6.33;3.43;;;;;;;;;;5073076;28;20303;-67
2023/11/18 12:33:18;;;;;;;7.90;3.43;;;;;;;;;;5052017;28;20185;-68
2023/11/18 12:35:43;;;;;;;5.67;2.80;;;;;;;;;;5069650;28;20208;-69
2023/11/18 12:38:28;;;;;;;4.63;3.27;;;;;;;;;;5068689;28;20288;-68
2023/11/18 12:40:59;;;;;;;4.27;3.13;;;;;;;;;;5068622;28;20208;-68
2023/11/18 12:43:47;;;;;;;6.77;3.00;;;;;;;;;;5068304;28;20179;-68
2023/11/18 12:46:31;;;;;;;5.63;2.73;;;;;;;;;;5069307;28;20214;-68
2023/11/18 12:48:59;;;;;;;4.80;2.73;;;;;;;;;;5071428;28;20189;-68
2023/11/18 12:51:25;;;;;;;5.63;2.13;;;;;;;;;;5068451;28;20773;-68
2023/11/18 12:53:51;;;;;;;3.40;2.37;;;;;;;;;;5069485;28;20264;-68
2023/11/18 12:56:19;;;;;;;4.70;2.60;;;;;;;;;;5052985;28;20183;-68
2023/11/18 12:58:45;;;;;;;4.77;2.13;;;;;;;;;;5068642;28;20275;-69
2023/11/18 13:01:14;;;;;;;3.97;2.00;;;;;;;;;;5069553;28;20667;-69
2023/11/18 13:03:41;;;;;;;4.33;2.57;;;;;;;;;;5073622;28;20180;-69
2023/11/18 13:06:06;;;;;;;3.50;2.30;;;;;;;;;;5068572;28;20185;-69
2023/11/18 13:08:31;;;;;;;4.57;2.10;;;;;;;;;;5068994;28;20248;-69
2023/11/18 13:10:59;;;;;;;4.90;2.63;;;;;;;;;;5067720;28;20357;-69
2023/11/18 13:13:26;;;;;;;4.43;2.07;;;;;;;;;;5052097;28;20790;-69
2023/11/18 13:15:52;;;;;;;2.33;1.83;;;;;;;;;;5068699;28;20216;-70
2023/11/18 13:18:17;;;;;;;3.87;1.90;;;;;;;;;;5066237;28;20295;-71
2023/11/18 13:20:53;;;;;;;2.60;1.90;;;;;;;;;;5051810;28;20231;-70
2023/11/18 13:23:18;;;;;;;3.93;2.10;;;;;;;;;;5068176;28;20837;-70
2023/11/18 13:25:43;;;;;;;3.53;1.80;;;;;;;;;;5068569;28;20188;-69
2023/11/18 13:28:12;;;;;;;3.33;2.17;;;;;;;;;;5068044;28;20263;-69
2023/11/18 13:30:38;;;;;;;2.57;1.70;;;;;;;;;;5077332;28;20240;-69
2023/11/18 13:33:04;;;;;;;2.50;1.80;;;;;;;;;;5071192;28;20188;-71
2023/11/18 13:35:29;;;;;;;3.23;1.60;;;;;;;;;;5068819;28;20181;-70
2023/11/18 13:37:54;;;;;;;3.33;2.07;;;;;;;;;;5067024;28;20187;-69
2023/11/18 13:40:20;;;;;;;4.57;1.93;;;;;;;;;;5068702;28;20219;-70
2023/11/18 13:42:46;;;;;;;3.70;2.00;;;;;;;;;;5068906;28;20177;-71
2023/11/18 13:45:15;;;;;;;3.70;2.10;;;;;;;;;;5069081;28;20176;-70
2023/11/18 13:47:42;;;;;;;2.87;1.90;;;;;;;;;;5067780;28;20183;-71
2023/11/18 13:50:08;;;;;;;4.03;2.00;;;;;;;;;;5052031;28;20640;-70
2023/11/18 13:52:34;;;;;;;3.33;1.67;;;;;;;;;;5050609;28;20194;-70
2023/11/18 13:55:00;;;;;;;2.07;1.57;;;;;;;;;;5069597;28;20234;-70
2023/11/18 13:57:25;;;;;;;2.67;1.70;;;;;;;;;;5067950;28;20204;-70
2023/11/18 13:59:51;;;;;;;2.20;1.57;;;;;;;;;;5067981;28;20299;-70
2023/11/18 14:02:16;;;;;;;3.37;1.80;;;;;;;;;;5067289;28;20260;-70
2023/11/18 14:04:44;;;;;;;2.10;1.60;;;;;;;;;;5049907;28;20188;-70
2023/11/18 14:07:15;;;;;;;3.17;1.90;;;;;;;;;;5067100;28;20658;-69
2023/11/18 14:09:41;;;;;;;2.03;1.73;;;;;;;;;;5049478;28;21511;-70
2023/11/18 14:12:09;;;;;;;2.87;1.63;;;;;;;;;;5067113;28;22448;-70
2023/11/18 14:14:34;;;;;;;5.87;1.90;;;;;;;;;;5067914;28;20272;-70
2023/11/18 14:17:00;;;;;;;2.37;2.00;;;;;;;;;;5067444;28;20643;-70
2023/11/18 14:19:25;;;;;;;4.33;2.00;;;;;;;;;;5066533;28;20202;-71
2023/11/18 14:21:54;;;;;;;2.60;2.20;;;;;;;;;;5068724;28;20184;-70
2023/11/18 14:24:19;;;;;;;2.70;2.00;;;;;;;;;;5051866;28;20678;-70
2023/11/18 14:26:44;;;;;;;2.27;2.07;;;;;;;;;;5067193;28;20180;-70
2023/11/18 14:29:11;;;;;;;2.23;2.03;;;;;;;;;;5052769;28;20323;-70
2023/11/18 14:31:37;;;;;;;2.47;1.93;;;;;;;;;;5070953;28;20192;-69
2023/11/18 14:34:03;;;;;;;2.13;1.90;;;;;;;;;;5067470;28;20199;-68
2023/11/18 14:36:28;;;;;;;2.93;1.70;;;;;;;;;;5070021;28;20614;-69